createdAt,value
2022-08-07T00:01:12.662Z,19.78
2022-08-07T00:04:30.505Z,19.73
2022-08-07T00:07:40.796Z,19.65
2022-08-07T00:10:48.241Z,19.69
2022-08-07T00:14:00.449Z,19.60
2022-08-07T00:17:04.696Z,19.58
2022-08-07T00:20:09.998Z,19.34
2022-08-07T00:23:21.379Z,18.86
2022-08-07T00:26:48.766Z,18.51
2022-08-07T00:29:47.435Z,18.39
2022-08-07T00:32:50.546Z,18.31
2022-08-07T00:35:53.356Z,18.17
2022-08-07T00:38:58.146Z,18.05
2022-08-07T00:42:05.354Z,18.13
2022-08-07T00:45:10.276Z,18.05
2022-08-07T00:48:19.340Z,18.04
2022-08-07T00:51:28.002Z,17.96
2022-08-07T00:54:53.344Z,17.92
2022-08-07T00:57:57.121Z,17.89
2022-08-07T01:00:59.924Z,17.92
2022-08-07T01:04:05.805Z,17.83
2022-08-07T01:07:10.757Z,17.78
2022-08-07T01:10:15.349Z,17.58
2022-08-07T01:13:21.809Z,17.62
2022-08-07T01:16:30.619Z,17.58
2022-08-07T01:19:33.664Z,17.49
2022-08-07T01:22:41.489Z,17.54
2022-08-07T01:25:57.218Z,17.40
2022-08-07T01:29:00.101Z,17.38
2022-08-07T01:32:05.487Z,17.39
2022-08-07T01:35:09.203Z,17.33
2022-08-07T01:38:13.473Z,17.42
2022-08-07T01:41:28.608Z,17.40
2022-08-07T01:44:35.517Z,17.38
2022-08-07T01:48:18.555Z,17.37
2022-08-07T01:51:24.065Z,17.16
2022-08-07T01:54:32.959Z,17.20
2022-08-07T01:58:01.652Z,17.11
2022-08-07T02:01:09.488Z,16.99
2022-08-07T02:04:17.470Z,17.04
2022-08-07T02:07:23.051Z,17.07
2022-08-07T02:10:42.257Z,17.01
2022-08-07T02:13:57.753Z,17.08
2022-08-07T02:17:03.167Z,17.00
2022-08-07T02:20:17.154Z,16.92
2022-08-07T02:23:24.617Z,16.99
2022-08-07T02:26:32.504Z,16.97
2022-08-07T02:29:48.830Z,16.94
2022-08-07T02:33:09.241Z,16.96
2022-08-07T02:36:29.844Z,16.99
2022-08-07T02:39:43.030Z,17.09
2022-08-07T02:43:01.539Z,17.05
2022-08-07T02:46:11.681Z,17.13
2022-08-07T02:49:55.725Z,17.22
2022-08-07T02:52:44.208Z,17.35
2022-08-07T02:56:03.412Z,17.49
2022-08-07T02:59:11.661Z,17.69
2022-08-07T03:02:15.940Z,17.74
2022-08-07T03:05:20.694Z,17.92
2022-08-07T03:08:26.899Z,18.02
2022-08-07T03:11:38.375Z,18.13
2022-08-07T03:14:43.988Z,18.13
2022-08-07T03:17:55.103Z,18.19
2022-08-07T03:20:57.892Z,18.25
2022-08-07T03:24:19.927Z,18.40
2022-08-07T03:27:30.712Z,18.49
2022-08-07T03:30:47.465Z,18.57
2022-08-07T03:33:51.428Z,18.61
2022-08-07T03:36:57.457Z,18.76
2022-08-07T03:40:15.556Z,18.84
2022-08-07T03:43:19.194Z,18.91
2022-08-07T03:46:23.666Z,19.11
2022-08-07T03:49:30.068Z,19.10
2022-08-07T03:52:34.554Z,19.30
2022-08-07T03:55:52.946Z,19.34
2022-08-07T03:59:08.354Z,19.53
2022-08-07T04:02:14.748Z,19.74
2022-08-07T04:05:20.535Z,19.76
2022-08-07T04:08:31.745Z,19.99
2022-08-07T04:12:25.143Z,20.16
2022-08-07T04:15:00.123Z,20.19
2022-08-07T04:18:04.719Z,20.74
2022-08-07T04:21:27.539Z,20.66
2022-08-07T04:24:39.058Z,20.89
2022-08-07T04:27:45.847Z,20.71
2022-08-07T04:30:57.043Z,21.20
2022-08-07T04:34:03.054Z,21.37
2022-08-07T04:37:08.100Z,21.58
2022-08-07T04:40:22.964Z,21.59
2022-08-07T04:44:11.723Z,21.77
2022-08-07T04:47:08.129Z,22.21
2022-08-07T04:50:15.288Z,22.41
2022-08-07T04:53:40.270Z,23.04
2022-08-07T04:58:14.030Z,22.73
2022-08-07T05:00:17.308Z,22.68
2022-08-07T05:04:00.439Z,23.30
2022-08-07T05:07:19.592Z,23.69
2022-08-07T05:10:26.074Z,23.58
2022-08-07T05:14:55.125Z,23.66
2022-08-07T05:17:01.857Z,23.91
2022-08-07T05:20:10.217Z,24.16
2022-08-07T05:23:16.378Z,24.36
2022-08-07T05:26:24.261Z,24.09
2022-08-07T05:29:48.005Z,24.44
2022-08-07T05:32:51.601Z,24.80
2022-08-07T05:35:55.347Z,24.80
2022-08-07T05:39:08.819Z,24.74
2022-08-07T05:42:34.194Z,24.78
2022-08-07T05:45:47.346Z,24.59
2022-08-07T05:48:58.229Z,24.84
2022-08-07T05:52:02.467Z,24.82
2022-08-07T05:55:10.721Z,24.92
2022-08-07T05:58:15.834Z,25.10
2022-08-07T06:01:21.241Z,25.33
2022-08-07T06:04:26.286Z,25.37
2022-08-07T06:08:13.204Z,25.19
2022-08-07T06:10:56.858Z,25.44
2022-08-07T06:14:11.822Z,25.67
2022-08-07T06:17:32.027Z,25.55
2022-08-07T06:20:50.228Z,25.60
2022-08-07T06:24:45.414Z,25.73
2022-08-07T06:28:00.730Z,25.83
2022-08-07T06:30:52.943Z,25.97
2022-08-07T06:33:56.333Z,26.02
2022-08-07T06:36:59.448Z,26.08
2022-08-07T06:40:16.590Z,26.09
2022-08-07T06:43:24.601Z,26.20
2022-08-07T06:46:35.282Z,26.18
2022-08-07T06:49:52.245Z,26.26
2022-08-07T06:53:04.322Z,26.39
2022-08-07T06:56:15.352Z,26.50
2022-08-07T07:00:13.122Z,26.55
2022-08-07T07:02:49.067Z,26.63
2022-08-07T07:06:05.081Z,26.74
2022-08-07T07:09:20.069Z,26.74
2022-08-07T07:12:31.327Z,26.81
2022-08-07T07:15:38.133Z,26.80
2022-08-07T07:18:48.728Z,26.93
2022-08-07T07:22:05.262Z,27.06
2022-08-07T07:26:33.482Z,27.02
2022-08-07T07:29:38.594Z,27.14
2022-08-07T07:32:08.816Z,27.23
2022-08-07T07:35:13.611Z,27.27
2022-08-07T07:38:17.128Z,27.25
2022-08-07T07:41:23.790Z,27.27
2022-08-07T07:44:49.532Z,27.41
2022-08-07T07:47:53.585Z,27.46
2022-08-07T07:50:59.464Z,27.53
2022-08-07T07:54:06.963Z,27.46
2022-08-07T07:57:13.409Z,27.56
2022-08-07T08:00:28.931Z,27.56
2022-08-07T08:04:09.282Z,27.73
2022-08-07T08:07:02.855Z,27.82
2022-08-07T08:10:14.973Z,27.81
2022-08-07T08:13:52.758Z,27.83
2022-08-07T08:17:56.615Z,27.81
2022-08-07T08:20:27.312Z,28.03
2022-08-07T08:24:02.768Z,27.97
2022-08-07T08:27:10.021Z,27.98
2022-08-07T08:30:32.059Z,28.02
2022-08-07T08:33:36.291Z,28.13
2022-08-07T08:36:46.214Z,28.21
2022-08-07T08:39:55.159Z,28.27
2022-08-07T08:43:04.825Z,28.30
2022-08-07T08:46:10.389Z,28.36
2022-08-07T08:49:18.451Z,28.46
2022-08-07T08:52:40.921Z,28.56
2022-08-07T08:56:00.753Z,28.59
2022-08-07T08:59:12.846Z,28.78
2022-08-07T09:02:36.784Z,28.75
2022-08-07T09:05:46.580Z,28.91
2022-08-07T09:08:58.042Z,29.18
2022-08-07T09:12:31.196Z,29.59
2022-08-07T09:16:23.995Z,30.89
2022-08-07T09:19:07.259Z,33.47
2022-08-07T09:24:31.903Z,35.02
2022-08-07T09:26:09.050Z,35.92
2022-08-07T09:30:02.305Z,36.97
2022-08-07T09:32:52.205Z,37.92
2022-08-07T09:36:05.102Z,36.68
2022-08-07T09:39:27.452Z,37.96
2022-08-07T09:42:48.055Z,38.05
2022-08-07T09:47:51.179Z,37.92
2022-08-07T09:50:00.663Z,38.38
2022-08-07T09:53:02.398Z,39.59
2022-08-07T09:56:34.064Z,39.50
2022-08-07T10:00:01.502Z,39.68
2022-08-07T10:04:04.770Z,41.25
2022-08-07T10:06:57.567Z,41.16
2022-08-07T10:10:04.348Z,42.36
2022-08-07T10:13:55.192Z,43.09
2022-08-07T10:16:59.733Z,42.57
2022-08-07T10:20:21.870Z,43.02
2022-08-07T10:24:05.582Z,42.52
2022-08-07T10:27:13.735Z,43.34
2022-08-07T10:30:19.991Z,42.84
2022-08-07T10:34:14.079Z,43.65
2022-08-07T10:37:48.244Z,41.97
2022-08-07T10:40:49.330Z,40.63
2022-08-07T10:44:07.410Z,40.15
2022-08-07T10:47:31.338Z,39.57
2022-08-07T10:50:49.955Z,41.51
2022-08-07T10:54:00.437Z,41.94
2022-08-07T10:57:12.781Z,41.50
2022-08-07T11:00:39.258Z,41.20
2022-08-07T11:03:55.059Z,40.92
2022-08-07T11:07:14.854Z,41.75
2022-08-07T11:10:21.299Z,41.29
2022-08-07T11:14:46.353Z,40.84
2022-08-07T11:17:01.893Z,40.28
2022-08-07T11:20:15.480Z,40.44
2022-08-07T11:23:30.304Z,40.33
2022-08-07T11:26:50.073Z,40.17
2022-08-07T11:30:17.585Z,40.06
2022-08-07T11:33:58.626Z,39.83
2022-08-07T11:37:01.001Z,40.29
2022-08-07T11:40:12.313Z,38.46
2022-08-07T11:43:54.336Z,39.06
2022-08-07T11:47:00.081Z,39.46
2022-08-07T11:50:30.826Z,39.80
2022-08-07T11:54:00.427Z,39.28
2022-08-07T11:57:14.031Z,38.76
2022-08-07T12:00:27.647Z,38.67
2022-08-07T12:03:49.588Z,38.52
2022-08-07T12:07:03.135Z,37.58
2022-08-07T12:10:18.989Z,38.48
2022-08-07T12:13:37.132Z,38.45
2022-08-07T12:16:46.125Z,37.48
2022-08-07T12:19:56.795Z,38.13
2022-08-07T12:23:37.120Z,37.81
2022-08-07T12:26:49.065Z,38.39
2022-08-07T12:29:55.318Z,38.28
2022-08-07T12:33:18.976Z,38.18
2022-08-07T12:36:33.451Z,38.02
2022-08-07T12:39:41.990Z,37.37
2022-08-07T12:42:55.109Z,35.55
2022-08-07T12:46:06.135Z,37.20
2022-08-07T12:49:25.820Z,37.34
2022-08-07T12:52:52.962Z,36.93
2022-08-07T12:56:02.437Z,37.65
2022-08-07T12:59:08.312Z,37.20
2022-08-07T13:02:33.245Z,37.85
2022-08-07T13:06:02.872Z,37.38
2022-08-07T13:10:19.371Z,37.04
2022-08-07T13:12:42.719Z,36.85
2022-08-07T13:15:53.212Z,35.92
2022-08-07T13:19:04.196Z,36.69
2022-08-07T13:25:34.515Z,37.25
2022-08-07T13:28:40.999Z,36.88
2022-08-07T13:31:57.475Z,37.22
2022-08-07T13:35:08.943Z,35.30
2022-08-07T13:38:14.918Z,36.12
2022-08-07T13:41:29.259Z,37.19
2022-08-07T13:44:34.693Z,37.62
2022-08-07T13:48:06.132Z,37.79
2022-08-07T13:51:26.937Z,37.66
2022-08-07T13:54:33.602Z,37.77
2022-08-07T13:57:40.069Z,37.97
2022-08-07T14:01:09.961Z,37.45
2022-08-07T14:04:14.159Z,37.70
2022-08-07T14:07:21.212Z,37.22
2022-08-07T14:10:28.249Z,37.98
2022-08-07T14:13:38.869Z,37.55
2022-08-07T14:16:50.063Z,37.67
2022-08-07T14:20:43.566Z,37.34
2022-08-07T14:23:59.469Z,36.78
2022-08-07T14:26:50.607Z,36.72
2022-08-07T14:30:09.527Z,36.27
2022-08-07T14:33:17.232Z,36.57
2022-08-07T14:36:41.283Z,36.24
2022-08-07T14:40:15.608Z,36.17
2022-08-07T14:43:57.212Z,36.35
2022-08-07T14:46:36.603Z,36.02
2022-08-07T14:49:57.479Z,36.46
2022-08-07T14:56:29.794Z,36.04
2022-08-07T15:00:04.499Z,36.01
2022-08-07T15:03:00.293Z,34.70
2022-08-07T15:06:25.939Z,34.37
2022-08-07T15:09:59.051Z,33.44
2022-08-07T15:12:55.001Z,32.55
2022-08-07T15:16:04.476Z,32.46
2022-08-07T15:19:16.845Z,32.06
2022-08-07T15:22:29.568Z,31.48
2022-08-07T15:25:48.164Z,31.24
2022-08-07T15:32:39.035Z,30.45
2022-08-07T15:36:01.209Z,30.13
2022-08-07T15:42:51.584Z,29.48
2022-08-07T15:46:00.715Z,29.15
2022-08-07T15:49:14.544Z,29.15
2022-08-07T15:52:30.603Z,29.21
2022-08-07T15:55:53.953Z,28.86
2022-08-07T15:58:59.321Z,28.64
2022-08-07T16:02:03.090Z,28.21
2022-08-07T16:05:15.478Z,28.29
2022-08-07T16:08:31.179Z,28.40
2022-08-07T16:11:54.366Z,27.92
2022-08-07T16:15:05.774Z,27.53
2022-08-07T16:18:12.724Z,27.35
2022-08-07T16:21:56.778Z,27.25
2022-08-07T16:25:23.306Z,27.31
2022-08-07T16:30:05.421Z,27.24
2022-08-07T16:32:02.556Z,27.01
2022-08-07T16:35:58.780Z,26.09
2022-08-07T16:39:01.087Z,28.14
2022-08-07T16:42:21.556Z,29.43
2022-08-07T16:46:47.506Z,29.71
2022-08-07T16:50:20.622Z,29.75
2022-08-07T16:53:14.902Z,29.62
2022-08-07T16:56:37.449Z,29.64
2022-08-07T16:59:51.117Z,29.32
2022-08-07T17:03:09.316Z,29.05
2022-08-07T17:06:29.573Z,28.97
2022-08-07T17:10:06.763Z,28.84
2022-08-07T17:13:04.491Z,28.68
2022-08-07T17:16:15.263Z,28.73
2022-08-07T17:19:23.952Z,28.54
2022-08-07T17:22:49.827Z,24.99
2022-08-07T17:25:57.317Z,24.56
2022-08-07T17:29:05.376Z,24.34
2022-08-07T17:32:30.860Z,24.11
2022-08-07T17:35:50.782Z,24.21
2022-08-07T17:39:10.542Z,24.26
2022-08-07T17:42:23.442Z,24.06
2022-08-07T17:45:35.321Z,24.09
2022-08-07T17:48:46.271Z,23.80
2022-08-07T17:52:01.143Z,23.66
2022-08-07T17:55:05.970Z,23.36
2022-08-07T17:58:11.011Z,23.50
2022-08-07T18:01:38.295Z,23.33
2022-08-07T18:04:48.736Z,23.46
2022-08-07T18:07:56.282Z,23.31
2022-08-07T18:12:07.938Z,23.29
2022-08-07T18:14:37.351Z,23.28
2022-08-07T18:18:46.614Z,23.33
2022-08-07T18:21:42.312Z,23.21
2022-08-07T18:24:43.293Z,23.16
2022-08-07T18:27:56.885Z,23.24
2022-08-07T18:31:08.813Z,22.95
2022-08-07T18:34:37.808Z,22.98
2022-08-07T18:38:58.724Z,23.02
2022-08-07T18:41:22.079Z,23.02
2022-08-07T18:44:45.920Z,23.24
2022-08-07T18:48:00.945Z,23.05
2022-08-07T18:51:14.978Z,22.88
2022-08-07T18:54:27.706Z,22.76
2022-08-07T18:57:39.906Z,22.58
2022-08-07T19:00:54.927Z,22.32
2022-08-07T19:04:02.114Z,22.78
2022-08-07T19:07:11.669Z,23.16
2022-08-07T19:10:21.848Z,23.26
2022-08-07T19:13:27.439Z,22.79
2022-08-07T19:17:04.177Z,22.90
2022-08-07T19:20:00.127Z,22.66
2022-08-07T19:23:18.346Z,22.48
2022-08-07T19:26:29.073Z,22.50
2022-08-07T19:31:03.821Z,22.53
2022-08-07T19:33:10.293Z,22.56
2022-08-07T19:36:27.810Z,22.51
2022-08-07T19:39:40.827Z,22.59
2022-08-07T19:43:02.779Z,22.48
2022-08-07T19:46:10.055Z,22.51
2022-08-07T19:49:16.428Z,22.49
2022-08-07T19:52:22.602Z,22.68
2022-08-07T19:55:26.029Z,22.62
2022-08-07T19:58:54.352Z,22.53
2022-08-07T20:01:58.082Z,21.97
2022-08-07T20:05:07.976Z,22.04
2022-08-07T20:08:14.530Z,22.15
2022-08-07T20:11:23.258Z,21.86
2022-08-07T20:14:53.922Z,21.82
2022-08-07T20:18:04.236Z,21.53
2022-08-07T20:21:21.438Z,21.92
2022-08-07T20:24:28.807Z,21.71
2022-08-07T20:27:47.701Z,21.72
2022-08-07T20:30:53.042Z,21.97
2022-08-07T20:33:58.137Z,22.04
2022-08-07T20:37:01.983Z,22.03
2022-08-07T20:40:31.465Z,22.08
2022-08-07T20:43:29.692Z,22.32
2022-08-07T20:46:42.906Z,22.35
2022-08-07T20:49:58.082Z,22.34
2022-08-07T20:53:04.549Z,22.43
2022-08-07T20:56:08.884Z,22.22
2022-08-07T21:00:04.947Z,21.87
2022-08-07T21:02:59.167Z,22.06
2022-08-07T21:06:21.745Z,21.74
2022-08-07T21:09:51.840Z,21.84
2022-08-07T21:12:57.602Z,21.59
2022-08-07T21:16:02.253Z,21.52
2022-08-07T21:19:10.330Z,21.66
2022-08-07T21:22:19.120Z,21.68
2022-08-07T21:25:29.094Z,21.78
2022-08-07T21:28:48.870Z,20.97
2022-08-07T21:32:46.551Z,21.43
2022-08-07T21:35:34.481Z,21.50
2022-08-07T21:38:55.436Z,21.48
2022-08-07T21:42:14.941Z,21.23
2022-08-07T21:46:10.658Z,21.27
2022-08-07T21:48:57.890Z,21.07
2022-08-07T21:52:33.240Z,21.21
2022-08-07T21:55:44.082Z,21.15
2022-08-07T21:58:55.017Z,20.93
2022-08-07T22:02:11.450Z,20.97
2022-08-07T22:05:22.021Z,21.24
2022-08-07T22:08:46.946Z,20.90
2022-08-07T22:12:04.971Z,20.90
2022-08-07T22:16:41.354Z,20.99
2022-08-07T22:18:38.403Z,21.11
2022-08-07T22:22:05.367Z,20.95
2022-08-07T22:25:13.337Z,20.56
2022-08-07T22:28:31.270Z,20.11
2022-08-07T22:31:56.357Z,20.19
2022-08-07T22:35:04.903Z,20.27
2022-08-07T22:38:25.853Z,20.27
2022-08-07T22:42:03.502Z,20.21
2022-08-07T22:45:01.983Z,20.32
2022-08-07T22:48:31.792Z,20.24
2022-08-07T22:51:44.547Z,19.87
2022-08-07T22:55:17.641Z,19.78
2022-08-07T22:58:37.694Z,19.69
2022-08-07T23:01:58.941Z,19.84
2022-08-07T23:06:07.268Z,19.82
2022-08-07T23:08:55.994Z,19.45
2022-08-07T23:12:06.478Z,19.45
2022-08-07T23:16:04.516Z,19.55
2022-08-07T23:18:42.515Z,19.41
2022-08-07T23:21:49.626Z,19.45
2022-08-07T23:25:03.178Z,19.17
2022-08-07T23:28:21.672Z,19.27
2022-08-07T23:32:49.255Z,19.21
2022-08-07T23:35:11.216Z,19.17
2022-08-07T23:38:36.913Z,19.29
2022-08-07T23:42:04.571Z,19.28
2022-08-07T23:45:15.036Z,19.10
2022-08-07T23:48:40.802Z,19.16
2022-08-07T23:52:59.868Z,19.13
2022-08-07T23:55:52.122Z,19.02
2022-08-07T23:58:39.617Z,19.12
